Time,TemperatureF,DewpointF,PressureIn,WindDirection,WindDirectionDegrees,WindSpeedMPH,WindSpeedGustMPH,Humidity,HourlyPrecipIn,Conditions,Clouds,dailyrainin,SoftwareType,DateUTC
2013-07-16 00:00:00,77.2,74.0,29.91,ESE,113,0.0,0.0,90,0.00,,,0.07,Wunderground v.1.15,2013-07-16 05:00:00,
2013-07-16 00:05:00,76.9,73.7,29.91,ESE,113,0.0,0.0,90,0.00,,,0.07,Wunderground v.1.15,2013-07-16 05:05:00,
2013-07-16 00:10:00,76.6,73.8,29.91,ESE,113,0.0,0.0,91,0.00,,,0.07,Wunderground v.1.15,2013-07-16 05:10:00,
2013-07-16 00:20:00,77.7,74.2,29.92,ESE,112,0.0,0.0,89,0.00,,,0.07,Wunderground v.1.15,2013-07-16 05:20:00,
2013-07-16 00:25:00,77.6,73.8,29.92,ESE,113,0.0,0.0,88,0.00,,,0.07,Wunderground v.1.15,2013-07-16 05:25:00,
2013-07-16 00:30:00,77.3,73.5,29.92,ESE,112,0.0,0.0,88,0.00,,,0.07,Wunderground v.1.15,2013-07-16 05:30:00,
2013-07-16 00:35:00,77.9,74.1,29.92,ESE,113,0.0,0.0,88,0.00,,,0.07,Wunderground v.1.15,2013-07-16 05:35:00,
2013-07-16 00:40:00,78.2,74.0,29.92,ESE,112,0.0,0.0,87,0.00,,,0.07,Wunderground v.1.15,2013-07-16 05:40:00,
2013-07-16 00:50:00,78.3,73.8,29.92,ESE,111,0.0,0.0,86,0.00,,,0.08,Wunderground v.1.15,2013-07-16 05:50:00,
2013-07-16 01:00:00,78.7,74.2,29.92,ESE,107,0.0,0.0,86,0.00,,,0.08,Wunderground v.1.15,2013-07-16 06:00:00,
2013-07-16 01:05:00,79.0,74.1,29.92,ESE,107,0.0,0.0,85,0.00,,,0.08,Wunderground v.1.15,2013-07-16 06:05:00,
2013-07-16 01:10:00,78.5,73.6,29.92,ESE,107,0.0,0.0,85,0.00,,,0.08,Wunderground v.1.15,2013-07-16 06:10:00,
2013-07-16 01:15:00,78.2,73.7,29.92,ESE,107,0.0,0.0,86,0.00,,,0.08,Wunderground v.1.15,2013-07-16 06:15:00,
2013-07-16 01:25:00,77.3,73.1,29.92,ESE,107,0.0,0.0,87,0.00,,,0.08,Wunderground v.1.15,2013-07-16 06:25:00,
2013-07-16 01:30:00,77.1,73.3,29.92,ESE,107,0.0,0.0,88,0.00,,,0.08,Wunderground v.1.15,2013-07-16 06:30:00,
2013-07-16 01:35:00,77.1,73.3,29.92,ESE,107,0.0,0.0,88,0.00,,,0.08,Wunderground v.1.15,2013-07-16 06:35:00,
2013-07-16 01:40:00,76.9,73.4,29.92,ESE,107,0.0,0.0,89,0.00,,,0.08,Wunderground v.1.15,2013-07-16 06:40:00,
2013-07-16 01:45:00,76.9,73.4,29.92,ESE,107,0.0,0.0,89,0.00,,,0.08,Wunderground v.1.15,2013-07-16 06:45:00,
2013-07-16 01:55:00,77.2,73.7,29.92,ESE,107,0.0,0.0,89,0.00,,,0.08,Wunderground v.1.15,2013-07-16 06:55:00,
2013-07-16 02:05:00,76.9,73.4,29.92,ESE,107,0.0,0.0,89,0.00,,,0.08,Wunderground v.1.15,2013-07-16 07:05:00,
2013-07-16 02:10:00,76.9,73.4,29.92,ESE,107,0.0,0.0,89,0.00,,,0.08,Wunderground v.1.15,2013-07-16 07:10:00,
2013-07-16 02:15:00,77.1,73.9,29.92,ESE,107,0.0,0.0,90,0.00,,,0.08,Wunderground v.1.15,2013-07-16 07:15:00,
2013-07-16 02:20:00,77.4,74.2,29.92,ESE,107,0.0,0.0,90,0.00,,,0.08,Wunderground v.1.15,2013-07-16 07:20:00,
2013-07-16 02:25:00,77.4,73.9,29.92,ESE,107,0.0,0.0,89,0.00,,,0.08,Wunderground v.1.15,2013-07-16 07:25:00,
2013-07-16 02:35:00,77.8,74.0,29.92,ESE,107,0.0,0.0,88,0.00,,,0.08,Wunderground v.1.15,2013-07-16 07:35:00,
2013-07-16 02:40:00,77.4,73.2,29.92,ESE,107,0.0,0.0,87,0.00,,,0.08,Wunderground v.1.15,2013-07-16 07:40:00,
2013-07-16 02:45:00,76.9,73.1,29.92,ESE,106,0.0,0.0,88,0.00,,,0.08,Wunderground v.1.15,2013-07-16 07:45:00,
2013-07-16 02:50:00,76.5,73.0,29.92,ESE,107,0.0,0.0,89,0.00,,,0.08,Wunderground v.1.15,2013-07-16 07:50:00,
2013-07-16 03:00:00,76.1,73.0,29.92,ESE,107,0.0,0.0,90,0.00,,,0.08,Wunderground v.1.15,2013-07-16 08:00:00,
2013-07-16 03:10:00,76.2,73.1,29.92,ESE,106,0.0,0.0,90,0.00,,,0.08,Wunderground v.1.15,2013-07-16 08:10:00,
2013-07-16 03:15:00,76.2,73.1,29.92,ESE,107,0.0,0.0,90,0.00,,,0.08,Wunderground v.1.15,2013-07-16 08:15:00,
2013-07-16 03:20:00,76.1,72.6,29.92,ESE,107,0.0,0.0,89,0.00,,,0.08,Wunderground v.1.15,2013-07-16 08:20:00,
2013-07-16 03:25:00,76.0,72.5,29.92,ESE,107,0.0,0.0,89,0.00,,,0.08,Wunderground v.1.15,2013-07-16 08:25:00,
2013-07-16 03:30:00,76.0,72.5,29.92,ESE,107,0.0,0.0,89,0.00,,,0.08,Wunderground v.1.15,2013-07-16 08:30:00,
2013-07-16 03:40:00,75.9,72.4,29.92,ESE,107,0.0,0.0,89,0.00,,,0.08,Wunderground v.1.15,2013-07-16 08:40:00,
2013-07-16 03:45:00,75.9,72.4,29.92,ESE,107,0.0,0.0,89,0.00,,,0.08,Wunderground v.1.15,2013-07-16 08:45:00,
2013-07-16 03:50:00,75.8,72.3,29.92,ESE,107,0.0,0.0,89,0.00,,,0.08,Wunderground v.1.15,2013-07-16 08:50:00,
2013-07-16 03:55:00,75.7,72.2,29.92,ESE,107,0.0,0.0,89,0.00,,,0.08,Wunderground v.1.15,2013-07-16 08:55:00,
2013-07-16 04:05:00,75.7,72.2,29.93,SE,125,0.0,0.0,89,0.00,,,0.08,Wunderground v.1.15,2013-07-16 09:05:00,
2013-07-16 04:10:00,75.7,72.2,29.93,SE,126,0.0,0.0,89,0.00,,,0.08,Wunderground v.1.15,2013-07-16 09:10:00,
2013-07-16 04:15:00,75.6,72.1,29.93,SE,126,0.0,0.0,89,0.00,,,0.09,Wunderground v.1.15,2013-07-16 09:15:00,
2013-07-16 04:20:00,75.6,72.1,29.93,SE,127,0.0,0.0,89,0.00,,,0.09,Wunderground v.1.15,2013-07-16 09:20:00,
2013-07-16 04:25:00,75.5,72.0,29.93,SE,127,0.0,0.0,89,0.00,,,0.09,Wunderground v.1.15,2013-07-16 09:25:00,
2013-07-16 04:30:00,75.4,71.9,29.93,SE,126,0.0,0.0,89,0.00,,,0.09,Wunderground v.1.15,2013-07-16 09:30:00,
2013-07-16 04:35:00,75.4,71.9,29.93,SE,126,0.0,0.0,89,0.00,,,0.09,Wunderground v.1.15,2013-07-16 09:35:00,
2013-07-16 04:40:00,75.4,71.9,29.93,SE,126,0.0,0.0,89,0.00,,,0.09,Wunderground v.1.15,2013-07-16 09:40:00,
2013-07-16 04:50:00,75.3,71.5,29.94,SE,127,0.0,0.0,88,0.00,,,0.09,Wunderground v.1.15,2013-07-16 09:50:00,
2013-07-16 05:00:00,75.3,71.8,29.94,SE,127,0.0,0.0,89,0.00,,,0.09,Wunderground v.1.15,2013-07-16 10:00:00,
2013-07-16 05:05:00,75.3,71.8,29.94,SE,126,0.0,0.0,89,0.00,,,0.09,Wunderground v.1.15,2013-07-16 10:05:00,
2013-07-16 05:10:00,75.3,71.5,29.94,SE,126,0.0,0.0,88,0.00,,,0.09,Wunderground v.1.15,2013-07-16 10:10:00,
2013-07-16 05:15:00,75.1,71.6,29.94,SE,126,0.0,0.0,89,0.00,,,0.09,Wunderground v.1.15,2013-07-16 10:15:00,
2013-07-16 05:25:00,75.0,71.5,29.94,SE,126,0.0,0.0,89,0.00,,,0.09,Wunderground v.1.15,2013-07-16 10:25:00,
2013-07-16 05:30:00,74.9,71.4,29.94,SE,126,0.0,0.0,89,0.00,,,0.09,Wunderground v.1.15,2013-07-16 10:30:00,
2013-07-16 05:35:00,74.9,71.4,29.94,SE,126,0.0,0.0,89,0.00,,,0.09,Wunderground v.1.15,2013-07-16 10:35:00,
2013-07-16 05:40:00,74.8,71.3,29.94,SE,126,0.0,0.0,89,0.00,,,0.09,Wunderground v.1.15,2013-07-16 10:40:00,
2013-07-16 05:45:00,74.8,71.7,29.94,SE,127,0.0,0.0,90,0.00,,,0.09,Wunderground v.1.15,2013-07-16 10:45:00,
2013-07-16 05:55:00,75.0,71.5,29.94,SE,126,0.0,0.0,89,0.00,,,0.09,Wunderground v.1.15,2013-07-16 10:55:00,
2013-07-16 06:05:00,75.0,71.5,29.95,SE,126,0.0,0.0,89,0.00,,,0.09,Wunderground v.1.15,2013-07-16 11:05:00,
2013-07-16 06:10:00,75.0,71.5,29.95,SE,126,0.0,0.0,89,0.00,,,0.09,Wunderground v.1.15,2013-07-16 11:10:00,
2013-07-16 06:15:00,74.8,71.3,29.95,SE,126,0.0,0.0,89,0.00,,,0.09,Wunderground v.1.15,2013-07-16 11:15:00,
2013-07-16 06:20:00,74.7,71.2,29.95,SE,126,0.0,0.0,89,0.00,,,0.09,Wunderground v.1.15,2013-07-16 11:20:00,
2013-07-16 06:30:00,74.7,71.2,29.96,SE,126,0.0,0.0,89,0.00,,,0.09,Wunderground v.1.15,2013-07-16 11:30:00,
2013-07-16 06:35:00,75.0,71.5,29.96,SE,126,0.0,0.0,89,0.00,,,0.09,Wunderground v.1.15,2013-07-16 11:35:00,
2013-07-16 06:40:00,75.1,71.6,29.96,SE,126,0.0,0.0,89,0.00,,,0.09,Wunderground v.1.15,2013-07-16 11:40:00,
2013-07-16 06:45:00,75.2,71.7,29.96,SE,127,0.0,0.0,89,0.00,,,0.09,Wunderground v.1.15,2013-07-16 11:45:00,
2013-07-16 06:50:00,75.5,72.0,29.96,SE,126,0.0,0.0,89,0.00,,,0.09,Wunderground v.1.15,2013-07-16 11:50:00,
2013-07-16 06:55:00,75.8,72.0,29.96,SE,127,0.0,0.0,88,0.00,,,0.09,Wunderground v.1.15,2013-07-16 11:55:00,
2013-07-16 07:05:00,76.2,72.0,29.96,SE,126,0.0,0.0,87,0.00,,,0.09,Wunderground v.1.15,2013-07-16 12:05:00,
2013-07-16 07:15:00,76.8,72.6,29.97,SE,132,0.0,0.0,87,0.00,,,0.09,Wunderground v.1.15,2013-07-16 12:15:00,
2013-07-16 07:20:00,76.9,72.4,29.97,SE,134,0.0,0.0,86,0.00,,,0.09,Wunderground v.1.15,2013-07-16 12:20:00,
2013-07-16 07:25:00,77.1,72.6,29.97,SE,140,0.0,0.0,86,0.00,,,0.09,Wunderground v.1.15,2013-07-16 12:25:00,
2013-07-16 07:30:00,77.1,72.2,29.97,SE,140,0.0,0.0,85,0.00,,,0.09,Wunderground v.1.15,2013-07-16 12:30:00,
2013-07-16 07:40:00,77.6,72.7,29.97,SSE,155,0.0,0.0,85,0.00,,,0.09,Wunderground v.1.15,2013-07-16 12:40:00,
2013-07-16 07:45:00,77.8,72.9,29.98,SSE,155,0.0,0.0,85,0.00,,,0.09,Wunderground v.1.15,2013-07-16 12:45:00,
2013-07-16 07:50:00,78.1,72.9,29.98,SSE,155,0.0,1.0,84,0.00,,,0.09,Wunderground v.1.15,2013-07-16 12:50:00,
2013-07-16 08:00:00,78.7,73.1,29.98,SSE,153,0.0,0.0,83,0.00,,,0.09,Wunderground v.1.15,2013-07-16 13:00:00,
2013-07-16 08:05:00,79.0,73.4,29.98,SSE,159,1.0,1.0,83,0.00,,,0.09,Wunderground v.1.15,2013-07-16 13:05:00,
2013-07-16 08:15:00,79.3,73.0,29.99,SSE,159,2.0,7.0,81,0.00,,,0.09,Wunderground v.1.15,2013-07-16 13:15:00,
2013-07-16 08:20:00,79.2,73.2,29.99,SSE,159,4.0,4.0,82,0.00,,,0.09,Wunderground v.1.15,2013-07-16 13:20:00,
2013-07-16 08:25:00,79.8,73.4,29.99,SSE,159,2.0,4.0,81,0.00,,,0.09,Wunderground v.1.15,2013-07-16 13:25:00,
2013-07-16 08:30:00,80.2,73.8,29.99,SSE,163,1.0,1.0,81,0.00,,,0.09,Wunderground v.1.15,2013-07-16 13:30:00,
2013-07-16 08:35:00,80.4,73.3,29.99,South,190,2.0,5.0,79,0.00,,,0.09,Wunderground v.1.15,2013-07-16 13:35:00,
2013-07-16 08:45:00,80.4,73.3,29.99,SE,140,5.0,5.0,79,0.00,,,0.09,Wunderground v.1.15,2013-07-16 13:45:00,
2013-07-16 08:50:00,80.5,73.0,29.99,SE,136,7.0,8.0,78,0.00,,,0.09,Wunderground v.1.15,2013-07-16 13:50:00,
2013-07-16 08:55:00,80.4,73.3,29.99,SE,125,7.0,8.0,79,0.00,,,0.09,Wunderground v.1.15,2013-07-16 13:55:00,
2013-07-16 09:05:00,81.2,73.7,29.99,SE,138,6.0,8.0,78,0.00,,,0.09,Wunderground v.1.15,2013-07-16 14:05:00,
2013-07-16 09:10:00,81.5,73.2,29.99,ESE,114,5.0,7.0,76,0.00,,,0.09,Wunderground v.1.15,2013-07-16 14:10:00,
2013-07-16 09:20:00,81.9,73.2,29.99,SE,134,5.0,6.0,75,0.00,,,0.09,Wunderground v.1.15,2013-07-16 14:20:00,
2013-07-16 09:25:00,81.9,73.6,29.99,SSE,149,4.0,6.0,76,0.00,,,0.09,Wunderground v.1.15,2013-07-16 14:25:00,
2013-07-16 09:30:00,82.0,73.3,29.99,SE,146,5.0,6.0,75,0.00,,,0.09,Wunderground v.1.15,2013-07-16 14:30:00,
2013-07-16 09:35:00,82.7,74.0,29.99,SSE,157,3.0,6.0,75,0.00,,,0.09,Wunderground v.1.15,2013-07-16 14:35:00,
2013-07-16 09:40:00,83.4,73.4,29.99,SSE,167,1.0,1.0,72,0.00,,,0.09,Wunderground v.1.15,2013-07-16 14:40:00,
2013-07-16 09:45:00,83.8,73.8,29.99,South,179,0.0,1.0,72,0.00,,,0.09,Wunderground v.1.15,2013-07-16 14:45:00,
2013-07-16 09:55:00,85.1,74.6,29.99,SSE,155,0.0,0.0,71,0.00,,,0.09,Wunderground v.1.15,2013-07-16 14:55:00,
2013-07-16 10:00:00,86.1,74.7,29.99,SSE,159,0.0,0.0,69,0.00,,,0.09,Wunderground v.1.15,2013-07-16 15:00:00,
2013-07-16 10:10:00,85.3,74.0,29.99,SE,128,3.0,3.0,69,0.00,,,0.09,Wunderground v.1.15,2013-07-16 15:10:00,
2013-07-16 10:15:00,85.2,74.3,29.99,SSE,165,1.0,3.0,70,0.00,,,0.09,Wunderground v.1.15,2013-07-16 15:15:00,
2013-07-16 10:20:00,86.0,74.6,29.99,SSW,198,1.0,1.0,69,0.00,,,0.09,Wunderground v.1.15,2013-07-16 15:20:00,
2013-07-16 10:30:00,88.1,75.3,29.99,NE,46,0.0,6.0,66,0.00,,,0.09,Wunderground v.1.15,2013-07-16 15:30:00,
2013-07-16 10:35:00,87.8,74.6,29.99,ESE,122,1.0,6.0,65,0.00,,,0.09,Wunderground v.1.15,2013-07-16 15:35:00,
2013-07-16 10:40:00,87.1,74.4,29.99,South,182,1.0,3.0,66,0.00,,,0.09,Wunderground v.1.15,2013-07-16 15:40:00,
2013-07-16 10:45:00,87.9,75.1,29.99,ENE,57,1.0,3.0,66,0.00,,,0.09,Wunderground v.1.15,2013-07-16 15:45:00,
2013-07-16 10:50:00,87.3,73.6,29.99,ESE,119,2.0,2.0,64,0.00,,,0.09,Wunderground v.1.15,2013-07-16 15:50:00,
2013-07-16 11:00:00,87.1,73.0,29.99,SE,140,3.0,3.0,63,0.00,,,0.09,Wunderground v.1.15,2013-07-16 16:00:00,
2013-07-16 11:05:00,88.2,74.0,29.99,SE,144,3.0,3.0,63,0.00,,,0.09,Wunderground v.1.15,2013-07-16 16:05:00,
2013-07-16 11:15:00,87.8,74.1,29.99,SSE,152,4.0,5.0,64,0.00,,,0.09,Wunderground v.1.15,2013-07-16 16:15:00,
2013-07-16 11:20:00,87.5,72.4,29.99,SE,145,6.0,6.0,61,0.00,,,0.09,Wunderground v.1.15,2013-07-16 16:20:00,
2013-07-16 11:25:00,87.9,74.2,29.99,SE,139,5.0,6.0,64,0.00,,,0.09,Wunderground v.1.15,2013-07-16 16:25:00,
2013-07-16 11:35:00,89.1,74.4,29.99,ESE,109,1.0,7.0,62,0.00,,,0.09,Wunderground v.1.15,2013-07-16 16:35:00,
2013-07-16 11:40:00,88.3,73.6,29.99,East,80,4.0,7.0,62,0.00,,,0.09,Wunderground v.1.15,2013-07-16 16:40:00,
2013-07-16 11:45:00,88.6,73.9,29.99,ENE,73,5.0,7.0,62,0.00,,,0.09,Wunderground v.1.15,2013-07-16 16:45:00,
2013-07-16 11:50:00,87.9,74.2,29.99,East,96,3.0,3.0,64,0.00,,,0.09,Wunderground v.1.15,2013-07-16 16:50:00,
2013-07-16 11:55:00,87.7,74.5,29.99,NE,52,1.0,3.0,65,0.00,,,0.09,Wunderground v.1.15,2013-07-16 16:55:00,
2013-07-16 12:00:00,88.7,74.5,29.99,SE,144,0.0,0.0,63,0.00,,,0.09,Wunderground v.1.15,2013-07-16 17:00:00,
2013-07-16 12:05:00,88.8,73.6,29.99,SE,134,0.0,0.0,61,0.00,,,0.09,Wunderground v.1.15,2013-07-16 17:05:00,
2013-07-16 12:10:00,88.8,74.1,29.99,ESE,109,2.0,5.0,62,0.00,,,0.09,Wunderground v.1.15,2013-07-16 17:10:00,
2013-07-16 12:20:00,87.9,73.7,29.99,South,180,6.0,6.0,63,0.00,,,0.09,Wunderground v.1.15,2013-07-16 17:20:00,
2013-07-16 12:25:00,87.8,74.1,29.99,SSE,152,3.0,6.0,64,0.00,,,0.09,Wunderground v.1.15,2013-07-16 17:25:00,
2013-07-16 12:30:00,87.8,74.1,29.98,ESE,115,3.0,6.0,64,0.00,,,0.09,Wunderground v.1.15,2013-07-16 17:30:00,
2013-07-16 12:35:00,88.7,74.5,29.98,East,91,4.0,6.0,63,0.00,,,0.09,Wunderground v.1.15,2013-07-16 17:35:00,
2013-07-16 12:45:00,87.7,73.5,29.98,ESE,122,7.0,8.0,63,0.00,,,0.09,Wunderground v.1.15,2013-07-16 17:45:00,
2013-07-16 12:50:00,87.9,73.7,29.98,SE,133,7.0,7.0,63,0.00,,,0.09,Wunderground v.1.15,2013-07-16 17:50:00,
2013-07-16 12:55:00,88.4,73.7,29.98,SE,137,5.0,7.0,62,0.00,,,0.09,Wunderground v.1.15,2013-07-16 17:55:00,
2013-07-16 13:00:00,89.4,74.2,29.97,ESE,115,5.0,6.0,61,0.00,,,0.09,Wunderground v.1.15,2013-07-16 18:00:00,
2013-07-16 13:10:00,90.2,73.9,29.97,ESE,118,5.0,5.0,59,0.00,,,0.09,Wunderground v.1.15,2013-07-16 18:10:00,
2013-07-16 13:20:00,90.3,74.5,29.97,ESE,121,2.0,6.0,60,0.00,,,0.09,Wunderground v.1.15,2013-07-16 18:20:00,
2013-07-16 13:25:00,90.0,73.7,29.97,East,80,4.0,6.0,59,0.00,,,0.09,Wunderground v.1.15,2013-07-16 18:25:00,
2013-07-16 13:30:00,90.2,73.4,29.97,ESE,118,4.0,4.0,58,0.00,,,0.09,Wunderground v.1.15,2013-07-16 18:30:00,
2013-07-16 13:35:00,90.2,72.9,29.97,ESE,109,3.0,9.0,57,0.00,,,0.09,Wunderground v.1.15,2013-07-16 18:35:00,
2013-07-16 13:40:00,89.0,73.3,29.97,East,86,5.0,7.0,60,0.00,,,0.09,Wunderground v.1.15,2013-07-16 18:40:00,
2013-07-16 13:50:00,89.7,73.5,29.97,ENE,70,1.0,7.0,59,0.00,,,0.09,Wunderground v.1.15,2013-07-16 18:50:00,
2013-07-16 13:55:00,89.8,74.1,29.97,ESE,109,3.0,8.0,60,0.00,,,0.09,Wunderground v.1.15,2013-07-16 18:55:00,
2013-07-16 14:00:00,89.7,74.0,29.96,ENE,75,7.0,7.0,60,0.00,,,0.09,Wunderground v.1.15,2013-07-16 19:00:00,
2013-07-16 14:05:00,89.4,73.7,29.96,SE,137,5.0,7.0,60,0.00,,,0.09,Wunderground v.1.15,2013-07-16 19:05:00,
2013-07-16 14:15:00,90.3,74.0,29.96,SE,143,3.0,7.0,59,0.00,,,0.09,Wunderground v.1.15,2013-07-16 19:15:00,
2013-07-16 14:25:00,90.2,73.9,29.96,SSE,150,6.0,9.0,59,0.00,,,0.09,Wunderground v.1.15,2013-07-16 19:25:00,
2013-07-16 14:30:00,90.6,74.8,29.96,SSE,165,5.0,5.0,60,0.00,,,0.09,Wunderground v.1.15,2013-07-16 19:30:00,
2013-07-16 14:35:00,90.4,74.1,29.96,SSE,152,4.0,5.0,59,0.00,,,0.09,Wunderground v.1.15,2013-07-16 19:35:00,
2013-07-16 14:40:00,90.2,73.9,29.96,SSE,148,5.0,5.0,59,0.00,,,0.09,Wunderground v.1.15,2013-07-16 19:40:00,
2013-07-16 14:45:00,90.6,74.3,29.95,SE,140,5.0,7.0,59,0.00,,,0.09,Wunderground v.1.15,2013-07-16 19:45:00,
2013-07-16 14:50:00,90.0,73.7,29.95,ENE,74,6.0,9.0,59,0.00,,,0.09,Wunderground v.1.15,2013-07-16 19:50:00,
2013-07-16 14:55:00,89.7,74.0,29.95,ESE,123,7.0,9.0,60,0.00,,,0.09,Wunderground v.1.15,2013-07-16 19:55:00,
2013-07-16 15:00:00,90.7,73.9,29.95,ENE,74,3.0,3.0,58,0.00,,,0.09,Wunderground v.1.15,2013-07-16 20:00:00,
2013-07-16 15:05:00,90.9,74.1,29.95,SE,124,2.0,3.0,58,0.00,,,0.09,Wunderground v.1.15,2013-07-16 20:05:00,
2013-07-16 15:15:00,89.5,74.3,29.94,East,100,4.0,6.0,61,0.00,,,0.09,Wunderground v.1.15,2013-07-16 20:15:00,
2013-07-16 15:20:00,89.8,74.6,29.94,SE,131,2.0,2.0,61,0.00,,,0.09,Wunderground v.1.15,2013-07-16 20:20:00,
2013-07-16 15:25:00,90.2,73.9,29.94,SE,132,3.0,11.0,59,0.00,,,0.09,Wunderground v.1.15,2013-07-16 20:25:00,
2013-07-16 15:35:00,90.7,73.9,29.94,ESE,115,4.0,7.0,58,0.00,,,0.09,Wunderground v.1.15,2013-07-16 20:35:00,
2013-07-16 15:40:00,91.2,73.8,29.94,ESE,121,4.0,8.0,57,0.00,,,0.09,Wunderground v.1.15,2013-07-16 20:40:00,
2013-07-16 15:45:00,91.2,73.3,29.94,ESE,102,5.0,8.0,56,0.00,,,0.09,Wunderground v.1.15,2013-07-16 20:45:00,
2013-07-16 15:50:00,90.6,73.3,29.94,ENE,71,4.0,6.0,57,0.00,,,0.09,Wunderground v.1.15,2013-07-16 20:50:00,
2013-07-16 15:55:00,91.0,73.7,29.94,SE,141,3.0,6.0,57,0.00,,,0.09,Wunderground v.1.15,2013-07-16 20:55:00,
2013-07-16 16:00:00,91.4,73.5,29.93,SE,134,2.0,6.0,56,0.00,,,0.09,Wunderground v.1.15,2013-07-16 21:00:00,
2013-07-16 16:05:00,91.5,73.6,29.93,ESE,123,1.0,6.0,56,0.00,,,0.09,Wunderground v.1.15,2013-07-16 21:05:00,
2013-07-16 16:10:00,90.8,73.5,29.93,East,94,5.0,8.0,57,0.00,,,0.09,Wunderground v.1.15,2013-07-16 21:10:00,
2013-07-16 16:20:00,91.1,73.2,29.93,ESE,121,5.0,5.0,56,0.00,,,0.09,Wunderground v.1.15,2013-07-16 21:20:00,
2013-07-16 16:25:00,91.5,73.1,29.93,ESE,109,5.0,9.0,55,0.00,,,0.09,Wunderground v.1.15,2013-07-16 21:25:00,
2013-07-16 16:30:00,91.2,72.8,29.93,ESE,111,4.0,5.0,55,0.00,,,0.09,Wunderground v.1.15,2013-07-16 21:30:00,
2013-07-16 16:40:00,91.4,72.4,29.93,ENE,75,6.0,6.0,54,0.00,,,0.09,Wunderground v.1.15,2013-07-16 21:40:00,
2013-07-16 16:45:00,91.5,72.5,29.93,East,82,4.0,6.0,54,0.00,,,0.09,Wunderground v.1.15,2013-07-16 21:45:00,
2013-07-16 16:50:00,90.7,72.3,29.93,ENE,71,2.0,2.0,55,0.00,,,0.09,Wunderground v.1.15,2013-07-16 21:50:00,
2013-07-16 16:55:00,90.9,72.5,29.93,East,95,4.0,6.0,55,0.00,,,0.09,Wunderground v.1.15,2013-07-16 21:55:00,
2013-07-16 17:00:00,91.2,72.8,29.93,ESE,111,4.0,11.0,55,0.00,,,0.09,Wunderground v.1.15,2013-07-16 22:00:00,
2013-07-16 17:10:00,91.5,72.0,29.93,ENE,57,5.0,8.0,53,0.00,,,0.09,Wunderground v.1.15,2013-07-16 22:10:00,
2013-07-16 17:20:00,91.0,72.6,29.92,ENE,74,6.0,6.0,55,0.00,,,0.09,Wunderground v.1.15,2013-07-16 22:20:00,
2013-07-16 17:25:00,91.0,73.1,29.92,ESE,105,7.0,7.0,56,0.00,,,0.09,Wunderground v.1.15,2013-07-16 22:25:00,
2013-07-16 17:30:00,90.3,71.9,29.92,ESE,119,6.0,7.0,55,0.00,,,0.09,Wunderground v.1.15,2013-07-16 22:30:00,
2013-07-16 17:35:00,90.9,72.5,29.92,East,94,4.0,7.0,55,0.00,,,0.09,Wunderground v.1.15,2013-07-16 22:35:00,
2013-07-16 17:40:00,90.9,73.0,29.92,East,87,3.0,3.0,56,0.00,,,0.09,Wunderground v.1.15,2013-07-16 22:40:00,
2013-07-16 17:45:00,90.9,72.5,29.92,East,88,2.0,3.0,55,0.00,,,0.09,Wunderground v.1.15,2013-07-16 22:45:00,
2013-07-16 17:50:00,90.5,72.1,29.92,SE,145,2.0,8.0,55,0.00,,,0.09,Wunderground v.1.15,2013-07-16 22:50:00,
2013-07-16 17:55:00,90.1,72.3,29.92,ENE,74,5.0,8.0,56,0.00,,,0.09,Wunderground v.1.15,2013-07-16 22:55:00,
2013-07-16 18:00:00,90.2,72.4,29.91,NE,55,4.0,4.0,56,0.00,,,0.09,Wunderground v.1.15,2013-07-16 23:00:00,
2013-07-16 18:05:00,90.5,72.7,29.91,SE,128,4.0,4.0,56,0.00,,,0.09,Wunderground v.1.15,2013-07-16 23:05:00,
2013-07-16 18:15:00,90.0,71.7,29.92,ESE,121,6.0,11.0,55,0.00,,,0.09,Wunderground v.1.15,2013-07-16 23:15:00,
2013-07-16 18:25:00,90.0,72.2,29.92,ESE,114,3.0,8.0,56,0.00,,,0.09,Wunderground v.1.15,2013-07-16 23:25:00,
2013-07-16 18:30:00,90.2,72.4,29.92,ESE,122,2.0,2.0,56,0.00,,,0.09,Wunderground v.1.15,2013-07-16 23:30:00,
2013-07-16 18:35:00,90.1,72.8,29.92,East,96,4.0,4.0,57,0.00,,,0.09,Wunderground v.1.15,2013-07-16 23:35:00,
2013-07-16 18:40:00,90.1,72.3,29.92,East,88,5.0,5.0,56,0.00,,,0.09,Wunderground v.1.15,2013-07-16 23:40:00,
2013-07-16 18:45:00,90.0,71.7,29.92,East,82,4.0,5.0,55,0.00,,,0.09,Wunderground v.1.15,2013-07-16 23:45:00,
2013-07-16 18:50:00,89.6,71.8,29.92,ESE,102,1.0,1.0,56,0.00,,,0.09,Wunderground v.1.15,2013-07-16 23:50:00,
2013-07-16 18:55:00,89.5,71.7,29.92,ESE,123,2.0,2.0,56,0.00,,,0.09,Wunderground v.1.15,2013-07-16 23:55:00,
2013-07-16 19:00:00,89.4,71.6,29.92,East,87,4.0,9.0,56,0.00,,,0.09,Wunderground v.1.15,2013-07-17 00:00:00,
2013-07-16 19:05:00,89.3,72.1,29.92,East,86,3.0,9.0,57,0.00,,,0.09,Wunderground v.1.15,2013-07-17 00:05:00,
2013-07-16 19:10:00,89.3,71.5,29.92,ENE,63,2.0,2.0,56,0.00,,,0.09,Wunderground v.1.15,2013-07-17 00:10:00,
2013-07-16 19:20:00,88.6,71.4,29.92,ESE,122,4.0,4.0,57,0.00,,,0.09,Wunderground v.1.15,2013-07-17 00:20:00,
2013-07-16 21:05:00,85.7,72.6,29.95,East,99,0.0,0.0,65,0.00,,,0.00,Wunderground v.1.15,2013-07-17 02:05:00,
2013-07-16 21:10:00,85.3,72.6,29.95,East,100,0.0,0.0,66,0.00,,,0.00,Wunderground v.1.15,2013-07-17 02:10:00,
2013-07-16 21:15:00,84.9,72.3,29.96,ESE,114,0.0,0.0,66,0.00,,,0.00,Wunderground v.1.15,2013-07-17 02:15:00,
2013-07-16 21:20:00,84.7,72.5,29.96,ESE,114,0.0,0.0,67,0.00,,,0.00,Wunderground v.1.15,2013-07-17 02:20:00,
2013-07-16 21:25:00,84.6,72.4,29.96,ESE,114,0.0,0.0,67,0.00,,,0.00,Wunderground v.1.15,2013-07-17 02:25:00,
2013-07-16 21:30:00,84.8,72.6,29.96,ESE,115,0.0,0.0,67,0.00,,,0.00,Wunderground v.1.15,2013-07-17 02:30:00,
2013-07-16 21:35:00,84.7,72.5,29.96,ESE,109,0.0,0.0,67,0.00,,,0.00,Wunderground v.1.15,2013-07-17 02:35:00,
2013-07-16 21:45:00,84.2,72.5,29.97,ESE,105,0.0,0.0,68,0.00,,,0.00,Wunderground v.1.15,2013-07-17 02:45:00,
2013-07-16 21:55:00,84.2,72.9,29.97,ESE,105,0.0,0.0,69,0.00,,,0.00,Wunderground v.1.15,2013-07-17 02:55:00,
2013-07-16 22:00:00,84.6,73.3,29.97,ESE,105,0.0,0.0,69,0.00,,,0.00,Wunderground v.1.15,2013-07-17 03:00:00,
2013-07-16 22:05:00,84.9,73.2,29.97,ESE,105,0.0,0.0,68,0.00,,,0.00,Wunderground v.1.15,2013-07-17 03:05:00,
2013-07-16 22:10:00,84.5,73.2,29.97,ESE,105,0.0,0.0,69,0.00,,,0.00,Wunderground v.1.15,2013-07-17 03:10:00,
2013-07-16 22:20:00,83.9,73.1,29.98,ESE,105,0.0,0.0,70,0.00,,,0.00,Wunderground v.1.15,2013-07-17 03:20:00,
2013-07-16 22:25:00,84.1,73.3,29.98,ESE,105,0.0,0.0,70,0.00,,,0.00,Wunderground v.1.15,2013-07-17 03:25:00,
2013-07-16 22:30:00,84.4,73.1,29.98,ESE,105,0.0,0.0,69,0.00,,,0.00,Wunderground v.1.15,2013-07-17 03:30:00,
2013-07-16 22:45:00,82.6,73.1,29.99,ESE,105,0.0,0.0,73,0.00,,,0.00,Wunderground v.1.15,2013-07-17 03:45:00,
2013-07-16 23:15:00,82.1,72.6,29.99,ESE,105,0.0,0.0,73,0.00,,,0.00,Wunderground v.1.15,2013-07-17 04:15:00,
2013-07-16 23:20:00,82.0,72.5,29.99,ESE,105,0.0,0.0,73,0.00,,,0.00,Wunderground v.1.15,2013-07-17 04:20:00,
2013-07-16 23:25:00,82.0,72.5,29.99,ESE,105,0.0,0.0,73,0.00,,,0.00,Wunderground v.1.15,2013-07-17 04:25:00,
2013-07-16 23:30:00,82.0,72.5,29.99,ESE,105,0.0,0.0,73,0.00,,,0.00,Wunderground v.1.15,2013-07-17 04:30:00,
2013-07-16 23:35:00,81.9,72.4,29.99,ESE,105,0.0,0.0,73,0.00,,,0.00,Wunderground v.1.15,2013-07-17 04:35:00,
2013-07-16 23:40:00,81.8,72.3,29.99,ESE,105,0.0,0.0,73,0.00,,,0.00,Wunderground v.1.15,2013-07-17 04:40:00,
2013-07-16 23:50:00,81.7,72.6,29.99,ESE,105,0.0,0.0,74,0.00,,,0.00,Wunderground v.1.15,2013-07-17 04:50:00,
2013-07-16 23:55:00,81.6,72.5,29.99,ESE,105,0.0,0.0,74,0.00,,,0.00,Wunderground v.1.15,2013-07-17 04:55:00,